Lake Hubert, Minnesota
Current Conditions -  °F | °C
As of 8:53 AM on Thursday 23 Oct 2014 (Local Time) from KBRD Reporting Station
Overcast Overcast  
Wind Chill: 51°   Ceiling: 600
Heat Index: 51°   Visibility: 7mi
Dew Point: 50°   Wind: 7mph
Humidity: 96%   Direction: 240°WSW
Pressure: 29.96"   Gusts: NA
Location:  46.5°N, 94.26°W
Report Text: KBRD 231353Z AUTO 24006KT 7SM OVC006 11/10 A2996 RMK AO2 SLP151 T01060100
Loading
Personal Weather Stations






























Interactive Weather Map
Tropical Storm Tracking
New forecast layout! Learn more

10-Day Weather Forecast

Advertisements
Track Severe Weather on mobile